Latest Weather Observations for Lockhart River

IDQ60801

Issued at 2:42 pm EST Saturday 22 February 2020 (issued every 10 minutes, with the page automatically refreshed every 10 minutes)

About weather observations | Map of weather stations | Latest weather observations for QLD | Other Formats
Station Details ID: 028008 Name: LOCKHART RIVER AIRPORT Lat: -12.79 Lon: 143.30 Height: 18.5 m
Data from the previous 72 hours. | See also: Recent months at Lockhart River
Date/Time
EST
Temp
°C
App
Temp
°C
Dew
Point
°C
Rel
Hum
%
Delta-T
°C
Wind Press
QNH
hPa
Press
MSL
hPa
Rain since
9am
mm
Dir  Spd
km/h
Gust
km/h
Spd
kts
Gust
kts
22/02:30pm 25.7 31.0 25.2 97 0.3 NNW 7 11 4 6 1006.1 1006.0 20.0
22/02:08pm 25.6 29.3 25.1 97 0.3 NNW 15 20 8 11 1006.4 1006.3 20.0
22/02:00pm 25.4 29.4 25.1 98 0.2 NNW 13 19 7 10 1006.7 1006.6 20.0
22/01:46pm 25.2 28.2 24.7 97 0.3 NNW 17 26 9 14 1007.1 1007.0 18.2
22/01:33pm 25.3 25.2 24.3 94 0.7 NW 32 50 17 27 1007.2 1007.1 12.6
22/01:32pm 25.2 24.9 24.2 94 0.7 NW 33 50 18 27 1007.3 1007.2 12.6
22/01:30pm 25.3 24.6 24.1 93 0.8 NW 35 52 19 28 1007.5 1007.4 11.0
22/01:24pm 26.7 28.8 24.7 89 1.4 NW 22 52 12 28 1007.2 1007.1 3.8
22/01:22pm 27.9 31.1 24.9 84 2.1 NW 17 52 9 28 1007.0 1006.9 0.6
22/01:00pm 30.8 35.2 25.6 74 3.7 NNW 13 17 7 9 1006.9 1006.8 0.2
22/12:30pm 30.5 35.6 25.6 75 3.5 N 9 17 5 9 1007.4 1007.3 0.0
22/12:00pm 29.6 33.9 24.9 76 3.3 N 11 17 6 9 1008.1 1008.0 0.0
22/11:30am 29.1 33.0 24.9 78 2.9 N 13 22 7 12 1008.6 1008.5 0.0
22/11:00am 28.8 31.8 24.6 78 2.9 N 17 24 9 13 1008.7 1008.6 0.0
22/10:30am 28.6 32.1 24.8 80 2.7 N 15 32 8 17 1009.0 1008.9 0.0
22/10:00am 28.0 32.4 25.0 84 2.1 N 11 17 6 9 1009.1 1009.0 0.0
22/09:30am 28.5 32.8 24.9 81 2.5 NNW 11 19 6 10 1008.9 1008.8 0.0
22/09:00am 27.7 32.5 25.1 86 1.8 NNW 9 15 5 8 1009.1 1009.0 0.0
22/08:55am 27.7 32.1 25.1 86 1.8 NNW 11 17 6 9 1009.1 1009.0 0.0
22/08:42am 27.5 32.4 25.3 88 1.5 NNW 9 13 5 7 1009.1 1009.0 0.0
22/08:30am 27.2 31.8 24.8 87 1.7 NNW 9 15 5 8 1008.8 1008.7 0.0
22/08:00am 26.6 30.5 24.8 90 1.3 NNW 13 22 7 12 1008.3 1008.2 0.0
22/07:30am 25.4 30.2 25.1 98 0.2 NW 9 13 5 7 1008.0 1007.9 0.0
22/07:00am 25.1 31.4 24.8 98 0.2 CALM 0 0 0 0 1007.7 1007.6 0.0
22/06:30am 25.1 31.4 24.8 98 0.2 CALM 0 0 0 0 1007.2 1007.1 0.0
22/06:00am 25.2 31.7 25.0 99 0.1 CALM 0 0 0 0 1006.8 1006.7 0.0
22/05:30am 25.0 31.3 24.7 98 0.2 CALM 0 0 0 0 1006.9 1006.8 0.0
22/05:00am 24.9 31.1 24.6 98 0.2 CALM 0 0 0 0 1006.8 1006.7 0.0
22/04:30am 25.0 31.1 24.5 97 0.3 CALM 0 0 0 0 1006.8 1006.7 0.0
22/04:00am 25.1 31.3 24.6 97 0.3 CALM 0 0 0 0 1007.0 1006.9 0.0
22/03:30am 25.3 31.6 24.8 97 0.3 CALM 0 0 0 0 1006.9 1006.8 0.0
22/03:00am 25.4 31.8 24.9 97 0.3 CALM 0 0 0 0 1007.2 1007.1 0.0
22/02:30am 25.6 32.1 25.1 97 0.3 CALM 0 0 0 0 1007.2 1007.1 0.0
22/02:00am 25.8 32.3 25.1 96 0.5 CALM 0 0 0 0 1007.5 1007.4 0.0
22/01:30am 25.9 32.4 25.0 95 0.6 CALM 0 0 0 0 1007.8 1007.7 0.0
22/01:00am 25.9 32.3 24.9 94 0.7 CALM 0 0 0 0 1008.0 1007.9 0.0
22/12:30am 26.1 32.4 24.7 92 1.0 CALM 0 4 0 2 1008.4 1008.3 0.0
22/12:00am 26.3 32.6 24.7 91 1.1 CALM 0 0 0 0 1008.6 1008.5 0.0
 
Date/Time
EST
Temp
°C
App
Temp
°C
Dew
Point
°C
Rel
Hum
%
Delta-T
°C
Wind Press
QNH
hPa
Press
MSL
hPa
Rain since
9am
mm
Dir  Spd
km/h
Gust
km/h
Spd
kts
Gust
kts
21/11:30pm 26.4 32.6 24.6 90 1.2 CALM 0 0 0 0 1008.6 1008.5 0.0
21/11:00pm 26.4 32.5 24.4 89 1.4 CALM 0 0 0 0 1008.7 1008.6 0.0
21/10:30pm 26.5 32.5 24.3 88 1.5 CALM 0 0 0 0 1008.9 1008.8 0.0
21/10:00pm 26.9 33.0 24.4 86 1.7 CALM 0 0 0 0 1008.6 1008.5 0.0
21/09:30pm 27.0 33.1 24.5 86 1.7 CALM 0 0 0 0 1008.2 1008.1 0.0
21/09:00pm 27.1 31.7 24.2 84 2.0 NW 7 11 4 6 1007.8 1007.7 0.0
21/08:30pm 27.2 31.4 24.1 83 2.1 NW 9 11 5 6 1007.7 1007.6 0.0
21/08:00pm 27.4 31.3 24.3 83 2.2 NW 11 15 6 8 1007.3 1007.2 0.0
21/07:30pm 27.7 31.9 24.1 81 2.5 NNW 9 15 5 8 1006.8 1006.7 0.0
21/07:00pm 28.0 32.5 24.0 79 2.8 NNW 7 9 4 5 1006.1 1006.0 0.0
21/06:30pm 28.3 32.0 23.9 77 3.0 NW 11 17 6 9 1005.2 1005.1 0.0
21/06:00pm 28.9 33.1 24.7 78 2.9 NNW 11 13 6 7 1004.6 1004.5 0.0
21/05:30pm 29.2 33.4 24.7 77 3.1 NNW 11 17 6 9 1004.4 1004.3 0.0
21/05:00pm 29.6 32.6 24.7 75 3.4 NNW 17 24 9 13 1004.5 1004.4 0.0
21/04:30pm 30.1 33.8 24.5 72 3.9 NNW 13 19 7 10 1004.5 1004.4 0.0
21/04:00pm 30.6 33.2 24.0 68 4.6 N 17 24 9 13 1004.4 1004.3 0.0
21/03:30pm 31.0 35.2 25.4 72 4.0 N 13 19 7 10 1004.6 1004.5 0.0
21/03:00pm 30.8 33.9 25.4 73 3.8 N 19 26 10 14 1004.9 1004.8 0.0
21/02:30pm 31.0 35.1 26.3 76 3.4 N 17 26 9 14 1005.1 1005.0 0.0
21/02:00pm 30.5 33.3 24.9 72 3.9 N 19 30 10 16 1005.8 1005.7 0.0
21/01:30pm 31.2 35.0 25.3 71 4.2 N 15 20 8 11 1006.4 1006.3 0.0
21/01:00pm 30.8 34.2 24.7 70 4.3 N 15 28 8 15 1007.1 1007.0 0.0
21/12:30pm 30.2 33.1 24.4 71 4.0 N 17 28 9 15 1007.5 1007.4 0.0
21/12:00pm 30.0 32.4 24.6 73 3.8 N 20 30 11 16 1007.9 1007.8 0.0
21/11:30am 29.9 33.3 25.2 76 3.3 NNW 17 26 9 14 1008.3 1008.2 0.0
21/11:00am 29.5 32.9 25.3 78 3.0 N 17 26 9 14 1008.6 1008.5 0.0
21/10:52am 29.8 33.8 26.2 81 2.6 NNW 17 24 9 13 1008.6 1008.5 0.0
21/10:41am 29.3 32.6 25.1 78 3.0 NNE 17 24 9 13 1008.6 1008.5 0.0
21/10:30am 29.2 32.8 25.0 78 2.9 N 15 22 8 12 1008.8 1008.7 0.0
21/10:00am 28.8 32.7 24.8 79 2.8 N 13 17 7 9 1009.0 1008.9 0.0
21/09:30am 29.3 33.7 25.7 81 2.5 N 13 19 7 10 1009.1 1009.0 0.0
21/09:27am 29.5 34.7 26.3 83 2.3 NNW 11 15 6 8 1009.0 1008.9 0.0
21/09:00am 28.8 35.7 26.8 89 1.4 WNW 4 11 2 6 1008.6 1008.5 13.2
21/08:55am 28.2 35.2 26.4 90 1.3 W 2 9 1 5 1008.5 1008.4 13.2
21/08:30am 26.6 32.7 25.7 95 0.6 SSE 4 9 2 5 1008.1 1008.0 13.2
21/08:00am 25.6 32.4 25.6 100 0.0 CALM 0 0 0 0 1007.9 1007.8 13.2
21/07:30am 25.2 31.8 25.2 100 0.0 CALM 0 0 0 0 1007.5 1007.4 13.2
21/07:00am 24.9 31.3 24.9 100 0.0 CALM 0 0 0 0 1007.2 1007.1 13.2
21/06:56am 24.8 31.1 24.8 100 0.0 CALM 0 0 0 0 1007.2 1007.1 13.2
21/06:30am 24.8 31.1 24.8 100 0.0 CALM 0 0 0 0 1007.1 1007.0 13.2
21/06:00am 24.7 31.0 24.7 100 0.0 CALM 0 0 0 0 1006.9 1006.8 13.2
21/05:38am 24.7 31.0 24.7 100 0.0 CALM 0 0 0 0 1006.8 1006.7 13.2
21/05:30am 24.7 31.0 24.7 100 0.0 CALM 0 0 0 0 1006.7 1006.6 13.2
21/05:00am 24.8 31.1 24.8 100 0.0 CALM 0 0 0 0 1006.2 1006.1 13.2
21/04:30am 24.6 30.8 24.6 100 0.0 CALM 0 0 0 0 1006.1 1006.0 13.2
21/04:22am 24.6 30.8 24.6 100 0.0 CALM 0 0 0 0 1006.1 1006.0 13.2
21/04:02am 24.7 31.0 24.7 100 0.0 CALM 0 0 0 0 1005.9 1005.8 13.2
21/04:00am 24.7 31.0 24.7 100 0.0 CALM 0 0 0 0 1005.8 1005.7 13.2
21/03:57am 24.6 30.8 24.6 100 0.0 CALM 0 0 0 0 1005.8 1005.7 13.2
21/03:30am 24.7 31.0 24.7 100 0.0 CALM 0 0 0 0 1006.1 1006.0 13.2
21/03:23am 24.9 31.3 24.9 100 0.0 CALM 0 0 0 0 1006.2 1006.1 13.2
21/03:05am 24.9 31.3 24.9 100 0.0 CALM 0 0 0 0 1006.6 1006.5 13.2
21/03:00am 24.9 31.3 24.9 100 0.0 CALM 0 0 0 0 1006.6 1006.5 13.2
21/02:30am 25.0 31.5 25.0 100 0.0 CALM 0 0 0 0 1007.0 1006.9 13.2
21/02:00am 25.1 31.6 25.1 100 0.0 CALM 0 0 0 0 1007.1 1007.0 13.2
21/01:30am 25.3 30.8 25.3 100 0.0 NNW 6 6 3 3 1007.2 1007.1 13.2
21/01:09am 25.5 32.3 25.5 100 0.0 CALM 0 0 0 0 1007.5 1007.4 13.2
21/01:03am 25.6 32.4 25.6 100 0.0 CALM 0 0 0 0 1007.7 1007.6 13.2
21/01:00am 25.7 32.6 25.7 100 0.0 CALM 0 0 0 0 1007.8 1007.7 13.2
21/12:56am 25.7 32.6 25.7 100 0.0 CALM 0 0 0 0 1007.9 1007.8 13.2
21/12:46am 25.6 32.4 25.6 100 0.0 CALM 0 0 0 0 1008.0 1007.9 13.2
21/12:30am 25.6 32.4 25.6 100 0.0 CALM 0 0 0 0 1008.3 1008.2 13.2
21/12:00am 25.6 32.3 25.4 99 0.1 CALM 0 0 0 0 1008.1 1008.0 13.2
 
Date/Time
EST
Temp
°C
App
Temp
°C
Dew
Point
°C
Rel
Hum
%
Delta-T
°C
Wind Press
QNH
hPa
Press
MSL
hPa
Rain since
9am
mm
Dir  Spd
km/h
Gust
km/h
Spd
kts
Gust
kts
20/11:30pm 25.3 31.9 25.3 100 0.0 CALM 0 0 0 0 1008.1 1008.0 13.2
20/11:00pm 25.5 32.1 25.3 99 0.1 CALM 0 0 0 0 1008.4 1008.3 13.2
20/10:31pm 25.7 32.5 25.5 99 0.1 CALM 0 0 0 0 1008.2 1008.1 13.2
20/10:30pm 25.7 32.5 25.5 99 0.1 CALM 0 0 0 0 1008.3 1008.2 13.2
20/10:00pm 25.7 32.5 25.5 99 0.1 CALM 0 0 0 0 1008.1 1008.0 13.2
20/09:36pm 25.6 32.2 25.3 98 0.2 CALM 0 0 0 0 1007.9 1007.8 13.2
20/09:30pm 25.5 32.1 25.2 98 0.2 CALM 0 0 0 0 1007.9 1007.8 13.2
20/09:00pm 25.5 32.1 25.2 98 0.2 CALM 0 0 0 0 1007.2 1007.1 13.2
20/08:30pm 25.5 32.1 25.2 98 0.2 CALM 0 0 0 0 1007.1 1007.0 13.2
20/08:00pm 25.3 31.6 24.8 97 0.3 CALM 0 0 0 0 1007.1 1007.0 13.0
20/07:30pm 25.4 31.8 24.9 97 0.3 CALM 0 0 0 0 1007.0 1006.9 12.6
20/07:00pm 25.3 31.5 24.6 96 0.5 CALM 0 0 0 0 1006.5 1006.4 12.0
20/06:31pm 25.4 30.0 24.2 93 0.8 NNW 7 11 4 6 1005.8 1005.7 11.8
20/06:30pm 25.4 29.8 24.4 94 0.7 NNW 9 15 5 8 1005.9 1005.8 11.8
20/06:17pm 26.0 30.8 25.1 95 0.6 N 9 15 5 8 1005.8 1005.7 11.2
20/06:00pm 26.4 32.1 25.9 97 0.4 N 7 11 4 6 1005.7 1005.6 10.4
20/05:30pm 26.5 32.0 25.6 95 0.6 NNW 7 11 4 6 1005.3 1005.2 9.0
20/05:00pm 26.7 33.6 25.7 94 0.7 CALM 0 6 0 3 1004.6 1004.5 9.0
20/04:30pm 26.3 31.7 25.4 95 0.6 ESE 7 11 4 6 1004.5 1004.4 9.0
20/04:00pm 26.2 33.0 25.5 96 0.5 CALM 0 0 0 0 1004.5 1004.4 9.0
20/03:30pm 25.5 32.0 25.0 97 0.3 CALM 0 6 0 3 1004.5 1004.4 9.0
20/03:03pm 25.3 31.5 24.6 96 0.5 CALM 0 6 0 3 1004.6 1004.5 9.0
20/03:00pm 25.2 31.0 24.5 96 0.5 W 2 7 1 4 1004.7 1004.6 9.0
20/02:30pm 25.9 27.0 23.6 87 1.6 NW 24 37 13 20 1004.6 1004.5 2.2
20/02:28pm 26.9 28.1 23.8 83 2.1 NW 24 37 13 20 1004.7 1004.6 0.4
20/02:00pm 32.3 36.7 25.1 65 5.1 NNE 11 24 6 13 1004.1 1004.0 0.0
20/01:30pm 32.7 37.1 24.5 62 5.8 NNW 9 20 5 11 1004.9 1004.8 0.0
20/01:00pm 32.7 37.6 25.2 64 5.3 NNE 9 17 5 9 1005.3 1005.2 0.0
20/12:30pm 32.6 36.1 24.9 64 5.4 NNW 15 22 8 12 1005.8 1005.7 0.0
20/12:00pm 32.0 34.7 24.8 65 5.1 N 19 24 10 13 1006.2 1006.1 0.0
20/11:30am 30.9 33.7 25.0 71 4.2 N 19 32 10 17 1006.6 1006.5 0.0
20/11:00am 30.4 33.7 25.7 76 3.3 NNW 19 24 10 13 1007.2 1007.1 0.0
20/10:30am 29.2 33.2 25.6 81 2.5 N 15 26 8 14 1007.7 1007.6 0.0
20/10:00am 28.3 33.9 25.7 86 1.8 NNE 7 11 4 6 1008.1 1008.0 0.0
20/09:30am 29.6 34.6 26.0 81 2.6 NNW 11 17 6 9 1008.2 1008.1 0.0
20/09:00am 28.9 33.5 25.9 84 2.1 NNW 13 22 7 12 1008.0 1007.9 15.8
20/08:30am 26.9 32.2 25.3 91 1.1 NW 7 9 4 5 1007.9 1007.8 15.8
20/08:00am 26.4 33.1 25.4 94 0.7 CALM 0 0 0 0 1007.4 1007.3 15.8
20/07:30am 26.0 32.6 25.3 96 0.5 CALM 0 0 0 0 1006.9 1006.8 15.8
20/07:00am 25.1 31.5 24.9 99 0.1 CALM 0 0 0 0 1006.3 1006.2 15.8
20/06:30am 24.4 30.5 24.4 100 0.0 CALM 0 0 0 0 1006.1 1006.0 15.8
20/06:00am 24.6 29.7 24.6 100 0.0 SSE 6 7 3 4 1005.7 1005.6 15.8
20/05:34am 24.6 30.8 24.6 100 0.0 CALM 0 0 0 0 1005.8 1005.7 15.8
20/05:30am 24.6 30.8 24.6 100 0.0 CALM 0 0 0 0 1005.7 1005.6 15.8
20/05:29am 24.6 30.8 24.6 100 0.0 CALM 0 0 0 0 1005.7 1005.6 15.8
20/05:00am 24.5 30.6 24.5 100 0.0 CALM 0 0 0 0 1005.8 1005.7 15.8
20/04:45am 24.5 30.6 24.5 100 0.0 CALM 0 0 0 0 1005.6 1005.5 15.8
20/04:31am 24.6 30.7 24.4 99 0.1 CALM 0 0 0 0 1005.4 1005.3 15.6
20/04:30am 24.6 30.7 24.4 99 0.1 CALM 0 0 0 0 1005.4 1005.3 15.6
20/04:00am 24.6 30.7 24.4 99 0.1 CALM 0 0 0 0 1005.0 1004.9 15.6
20/03:30am 24.7 30.8 24.5 99 0.1 CALM 0 0 0 0 1004.9 1004.8 15.6
20/03:00am 24.8 31.0 24.6 99 0.1 CALM 0 0 0 0 1005.2 1005.1 15.6
20/02:30am 25.1 31.5 24.9 99 0.1 CALM 0 0 0 0 1005.7 1005.6 15.6
20/02:00am 25.1 31.6 25.1 100 0.0 CALM 0 0 0 0 1005.9 1005.8 15.6
20/01:30am 25.2 31.7 25.0 99 0.1 CALM 0 0 0 0 1006.0 1005.9 15.6
20/01:00am 25.2 31.3 25.0 99 0.1 NNW 2 7 1 4 1006.8 1006.7 15.6
20/12:30am 25.3 30.5 25.1 99 0.1 NW 7 9 4 5 1007.4 1007.3 15.6
20/12:00am 25.4 30.8 25.2 99 0.1 NW 6 7 3 4 1007.8 1007.7 15.6
 
Date/Time
EST
Temp
°C
App
Temp
°C
Dew
Point
°C
Rel
Hum
%
Delta-T
°C
Wind Press
QNH
hPa
Press
MSL
hPa
Rain since
9am
mm
Dir  Spd
km/h
Gust
km/h
Spd
kts
Gust
kts
19/11:30pm 25.5 32.1 25.2 98 0.2 CALM 0 0 0 0 1008.2 1008.1 15.6
19/11:00pm 25.4 32.0 25.2 99 0.1 CALM 0 0 0 0 1008.5 1008.4 15.6
19/10:30pm 25.5 32.1 25.3 99 0.1 CALM 0 0 0 0 1008.4 1008.3 15.6
19/10:00pm 25.7 32.4 25.4 98 0.2 CALM 0 0 0 0 1007.9 1007.8 15.6
19/09:30pm 25.7 32.4 25.4 98 0.2 CALM 0 0 0 0 1007.6 1007.5 15.6
19/09:00pm 25.6 32.2 25.3 98 0.2 CALM 0 0 0 0 1007.4 1007.3 15.6
19/08:30pm 25.7 32.3 25.2 97 0.3 CALM 0 0 0 0 1007.0 1006.9 15.6
19/08:00pm 25.6 32.1 25.1 97 0.3 CALM 0 0 0 0 1006.7 1006.6 15.6
19/07:39pm 25.5 31.8 24.8 96 0.5 CALM 0 0 0 0 1006.4 1006.3 15.6
19/07:30pm 25.6 32.1 25.1 97 0.3 CALM 0 0 0 0 1006.3 1006.2 15.6
19/07:20pm 25.6 31.7 25.1 97 0.3 NNW 2 6 1 3 1006.1 1006.0 15.6
19/07:00pm 25.7 30.6 25.2 97 0.3 NW 9 11 5 6 1005.6 1005.5 15.6
19/06:30pm 25.9 32.5 25.2 96 0.5 CALM 0 9 0 5 1005.3 1005.2 15.6
19/06:00pm 25.7 32.0 24.8 95 0.6 CALM 0 0 0 0 1004.8 1004.7 15.6
19/05:30pm 25.7 31.0 25.2 97 0.3 E 7 9 4 5 1004.5 1004.4 15.4
19/05:00pm 25.5 31.8 24.8 96 0.5 CALM 0 0 0 0 1004.4 1004.3 14.8
19/04:30pm 25.6 31.0 25.1 97 0.3 S 6 9 3 5 1004.5 1004.4 14.4
19/04:00pm 25.2 31.1 24.7 97 0.3 W 2 7 1 4 1005.0 1004.9 14.4
19/03:57pm 25.4 31.8 24.9 97 0.3 CALM 0 0 0 0 1005.1 1005.0 14.4
19/03:43pm 25.1 29.5 24.4 96 0.5 SW 9 15 5 8 1005.3 1005.2 13.6
19/03:40pm 25.1 29.5 24.4 96 0.5 SW 9 17 5 9 1005.3 1005.2 13.0
19/03:30pm 25.0 28.2 24.3 96 0.5 WSW 15 19 8 10 1005.0 1004.9 11.8
19/03:18pm 25.3 28.9 24.4 95 0.6 W 13 20 7 11 1005.3 1005.2 9.8
19/03:08pm 25.3 27.6 24.4 95 0.6 WNW 20 30 11 16 1005.2 1005.1 8.4
19/03:05pm 25.7 27.9 24.8 95 0.6 WNW 22 35 12 19 1005.2 1005.1 8.0
19/03:00pm 25.6 26.7 24.4 93 0.8 NW 26 37 14 20 1005.1 1005.0 5.8
19/02:58pm 25.9 27.2 24.7 93 0.8 NW 26 37 14 20 1005.0 1004.9 2.8
19/02:53pm 26.7 28.4 24.7 89 1.4 NW 24 37 13 20 1004.8 1004.7 0.0

Other formats

Comma delimited format used in spreadsheet applications
http://www.bom.gov.au/fwo/IDQ60801/IDQ60801.94186.axf

JavaScript Object Notation format (JSON) in row-major order
http://www.bom.gov.au/fwo/IDQ60801/IDQ60801.94186.json

Data quality

Most of these data are generated automatically and are frequently updated. Quality checks on data are not normally performed. It is possible for incorrect values to appear. Refer to information at About Latest Weather Observations and please check the disclaimer before using these data.